sensor_id;sensor_type;location;lat;lon;timestamp;P1;durP1;ratioP1;P2;durP2;ratioP2
79403;SDS011;68858;48.642;9.142;2023-08-06T00:01:11;10.57;;;9.63;;
79403;SDS011;68858;48.642;9.142;2023-08-06T00:03:36;10.00;;;9.00;;
79403;SDS011;68858;48.642;9.142;2023-08-06T00:06:01;10.00;;;9.00;;
79403;SDS011;68858;48.642;9.142;2023-08-06T00:08:27;8.63;;;7.87;;
79403;SDS011;68858;48.642;9.142;2023-08-06T00:10:52;7.77;;;7.10;;
79403;SDS011;68858;48.642;9.142;2023-08-06T00:13:17;6.13;;;5.63;;
79403;SDS011;68858;48.642;9.142;2023-08-06T00:15:43;6.10;;;5.47;;
79403;SDS011;68858;48.642;9.142;2023-08-06T00:18:08;5.97;;;5.47;;
79403;SDS011;68858;48.642;9.142;2023-08-06T00:20:33;5.20;;;4.80;;
79403;SDS011;68858;48.642;9.142;2023-08-06T00:22:59;4.80;;;4.40;;
79403;SDS011;68858;48.642;9.142;2023-08-06T00:25:24;5.73;;;4.17;;
79403;SDS011;68858;48.642;9.142;2023-08-06T00:27:49;5.17;;;4.77;;
79403;SDS011;68858;48.642;9.142;2023-08-06T00:30:15;5.97;;;5.37;;
79403;SDS011;68858;48.642;9.142;2023-08-06T00:32:40;5.30;;;4.80;;
79403;SDS011;68858;48.642;9.142;2023-08-06T00:35:05;7.03;;;4.80;;
79403;SDS011;68858;48.642;9.142;2023-08-06T00:37:31;6.90;;;4.87;;
79403;SDS011;68858;48.642;9.142;2023-08-06T00:39:56;5.50;;;5.00;;
79403;SDS011;68858;48.642;9.142;2023-08-06T00:42:22;6.60;;;6.00;;
79403;SDS011;68858;48.642;9.142;2023-08-06T00:44:47;5.60;;;5.10;;
79403;SDS011;68858;48.642;9.142;2023-08-06T00:47:13;5.57;;;5.07;;
79403;SDS011;68858;48.642;9.142;2023-08-06T00:49:38;5.50;;;5.00;;
79403;SDS011;68858;48.642;9.142;2023-08-06T00:52:04;6.17;;;5.00;;
79403;SDS011;68858;48.642;9.142;2023-08-06T00:54:30;4.87;;;4.43;;
79403;SDS011;68858;48.642;9.142;2023-08-06T00:56:56;5.53;;;4.50;;
79403;SDS011;68858;48.642;9.142;2023-08-06T00:59:22;5.07;;;4.57;;
79403;SDS011;68858;48.642;9.142;2023-08-06T01:01:48;5.50;;;5.00;;
79403;SDS011;68858;48.642;9.142;2023-08-06T01:04:15;5.83;;;4.77;;
79403;SDS011;68858;48.642;9.142;2023-08-06T01:06:44;4.07;;;3.77;;
79403;SDS011;68858;48.642;9.142;2023-08-06T01:17:27;6.10;;;3.83;;
79403;SDS011;68858;48.642;9.142;2023-08-06T01:19:52;4.47;;;3.60;;
79403;SDS011;68858;48.642;9.142;2023-08-06T01:22:18;4.40;;;4.00;;
79403;SDS011;68858;48.642;9.142;2023-08-06T01:24:45;3.83;;;3.53;;
79403;SDS011;68858;48.642;9.142;2023-08-06T01:27:14;4.37;;;3.70;;
79403;SDS011;68858;48.642;9.142;2023-08-06T01:29:47;4.40;;;4.00;;
79403;SDS011;68858;48.642;9.142;2023-08-06T01:32:14;4.43;;;4.03;;
79403;SDS011;68858;48.642;9.142;2023-08-06T01:34:40;4.10;;;3.70;;
79403;SDS011;68858;48.642;9.142;2023-08-06T01:37:06;4.33;;;3.70;;
79403;SDS011;68858;48.642;9.142;2023-08-06T01:39:35;4.27;;;3.97;;
79403;SDS011;68858;48.642;9.142;2023-08-06T01:42:00;4.07;;;3.67;;
79403;SDS011;68858;48.642;9.142;2023-08-06T01:44:26;5.70;;;4.80;;
79403;SDS011;68858;48.642;9.142;2023-08-06T01:46:51;5.50;;;5.00;;
79403;SDS011;68858;48.642;9.142;2023-08-06T01:49:17;5.53;;;5.03;;
79403;SDS011;68858;48.642;9.142;2023-08-06T01:51:42;4.57;;;4.17;;
79403;SDS011;68858;48.642;9.142;2023-08-06T01:54:07;4.53;;;4.23;;
79403;SDS011;68858;48.642;9.142;2023-08-06T01:56:32;4.27;;;3.87;;
79403;SDS011;68858;48.642;9.142;2023-08-06T01:58:58;4.57;;;4.23;;
79403;SDS011;68858;48.642;9.142;2023-08-06T02:01:23;4.33;;;3.97;;
79403;SDS011;68858;48.642;9.142;2023-08-06T02:03:48;4.27;;;3.97;;
79403;SDS011;68858;48.642;9.142;2023-08-06T02:06:14;4.17;;;3.87;;
79403;SDS011;68858;48.642;9.142;2023-08-06T02:08:39;4.03;;;3.70;;
79403;SDS011;68858;48.642;9.142;2023-08-06T02:11:04;4.37;;;3.97;;
79403;SDS011;68858;48.642;9.142;2023-08-06T02:13:30;4.07;;;3.23;;
79403;SDS011;68858;48.642;9.142;2023-08-06T02:15:55;3.73;;;3.27;;
79403;SDS011;68858;48.642;9.142;2023-08-06T02:18:21;4.00;;;3.43;;
79403;SDS011;68858;48.642;9.142;2023-08-06T02:20:58;4.00;;;3.67;;
79403;SDS011;68858;48.642;9.142;2023-08-06T02:23:24;3.90;;;3.60;;
79403;SDS011;68858;48.642;9.142;2023-08-06T02:26:02;3.30;;;3.10;;
79403;SDS011;68858;48.642;9.142;2023-08-06T02:28:28;3.60;;;3.30;;
79403;SDS011;68858;48.642;9.142;2023-08-06T02:30:54;3.87;;;3.57;;
79403;SDS011;68858;48.642;9.142;2023-08-06T02:33:19;4.37;;;3.97;;
79403;SDS011;68858;48.642;9.142;2023-08-06T02:35:45;3.97;;;3.63;;
79403;SDS011;68858;48.642;9.142;2023-08-06T02:38:10;3.90;;;3.50;;
79403;SDS011;68858;48.642;9.142;2023-08-06T02:40:36;3.93;;;3.57;;
79403;SDS011;68858;48.642;9.142;2023-08-06T02:43:01;3.73;;;3.37;;
79403;SDS011;68858;48.642;9.142;2023-08-06T02:45:27;4.20;;;3.30;;
79403;SDS011;68858;48.642;9.142;2023-08-06T02:47:52;3.90;;;3.27;;
79403;SDS011;68858;48.642;9.142;2023-08-06T02:50:17;3.90;;;2.97;;
79403;SDS011;68858;48.642;9.142;2023-08-06T02:52:43;2.73;;;2.53;;
79403;SDS011;68858;48.642;9.142;2023-08-06T02:55:08;2.77;;;2.50;;
79403;SDS011;68858;48.642;9.142;2023-08-06T02:57:33;7.00;;;2.93;;
79403;SDS011;68858;48.642;9.142;2023-08-06T02:59:59;3.07;;;2.40;;
79403;SDS011;68858;48.642;9.142;2023-08-06T03:02:24;3.50;;;2.30;;
79403;SDS011;68858;48.642;9.142;2023-08-06T03:04:49;2.63;;;2.43;;
79403;SDS011;68858;48.642;9.142;2023-08-06T03:07:14;3.67;;;2.73;;
79403;SDS011;68858;48.642;9.142;2023-08-06T03:09:40;3.00;;;2.67;;
79403;SDS011;68858;48.642;9.142;2023-08-06T03:12:05;3.00;;;2.47;;
79403;SDS011;68858;48.642;9.142;2023-08-06T03:14:31;3.27;;;2.47;;
79403;SDS011;68858;48.642;9.142;2023-08-06T03:16:56;5.47;;;3.17;;
79403;SDS011;68858;48.642;9.142;2023-08-06T03:19:21;4.37;;;2.57;;
79403;SDS011;68858;48.642;9.142;2023-08-06T03:21:47;3.43;;;2.33;;
79403;SDS011;68858;48.642;9.142;2023-08-06T03:24:13;4.10;;;2.70;;
79403;SDS011;68858;48.642;9.142;2023-08-06T03:26:38;3.03;;;2.60;;
79403;SDS011;68858;48.642;9.142;2023-08-06T03:29:04;3.43;;;2.70;;
79403;SDS011;68858;48.642;9.142;2023-08-06T03:31:29;2.53;;;2.33;;
79403;SDS011;68858;48.642;9.142;2023-08-06T03:33:54;4.40;;;2.30;;
79403;SDS011;68858;48.642;9.142;2023-08-06T03:36:20;3.40;;;2.33;;
79403;SDS011;68858;48.642;9.142;2023-08-06T03:38:45;2.63;;;2.10;;
79403;SDS011;68858;48.642;9.142;2023-08-06T03:41:10;3.60;;;2.50;;
79403;SDS011;68858;48.642;9.142;2023-08-06T03:43:36;3.40;;;2.30;;
79403;SDS011;68858;48.642;9.142;2023-08-06T03:46:01;3.40;;;2.27;;
79403;SDS011;68858;48.642;9.142;2023-08-06T03:48:26;3.27;;;2.23;;
79403;SDS011;68858;48.642;9.142;2023-08-06T03:50:51;2.30;;;2.10;;
79403;SDS011;68858;48.642;9.142;2023-08-06T03:53:17;3.90;;;2.47;;
79403;SDS011;68858;48.642;9.142;2023-08-06T03:55:42;3.57;;;2.17;;
79403;SDS011;68858;48.642;9.142;2023-08-06T03:58:07;3.37;;;2.07;;
79403;SDS011;68858;48.642;9.142;2023-08-06T04:00:33;3.73;;;2.20;;
79403;SDS011;68858;48.642;9.142;2023-08-06T04:02:58;3.20;;;1.80;;
79403;SDS011;68858;48.642;9.142;2023-08-06T04:05:23;2.30;;;2.10;;
79403;SDS011;68858;48.642;9.142;2023-08-06T04:07:49;1.87;;;1.70;;
79403;SDS011;68858;48.642;9.142;2023-08-06T04:10:14;2.07;;;1.70;;
79403;SDS011;68858;48.642;9.142;2023-08-06T04:12:40;3.63;;;1.80;;
79403;SDS011;68858;48.642;9.142;2023-08-06T04:15:05;2.40;;;1.90;;
79403;SDS011;68858;48.642;9.142;2023-08-06T04:17:31;3.23;;;1.93;;
79403;SDS011;68858;48.642;9.142;2023-08-06T04:19:56;5.33;;;2.03;;
79403;SDS011;68858;48.642;9.142;2023-08-06T04:22:25;2.07;;;1.87;;
79403;SDS011;68858;48.642;9.142;2023-08-06T04:24:50;2.47;;;1.90;;
79403;SDS011;68858;48.642;9.142;2023-08-06T04:27:16;2.50;;;1.90;;
79403;SDS011;68858;48.642;9.142;2023-08-06T04:29:41;2.10;;;1.90;;
79403;SDS011;68858;48.642;9.142;2023-08-06T04:32:08;2.00;;;1.80;;
79403;SDS011;68858;48.642;9.142;2023-08-06T04:34:34;2.67;;;2.00;;
79403;SDS011;68858;48.642;9.142;2023-08-06T04:37:00;3.30;;;2.00;;
79403;SDS011;68858;48.642;9.142;2023-08-06T04:39:25;2.90;;;2.20;;
79403;SDS011;68858;48.642;9.142;2023-08-06T04:41:51;2.73;;;1.83;;
79403;SDS011;68858;48.642;9.142;2023-08-06T04:44:16;2.80;;;2.10;;
79403;SDS011;68858;48.642;9.142;2023-08-06T04:46:41;2.67;;;1.47;;
79403;SDS011;68858;48.642;9.142;2023-08-06T04:49:07;2.20;;;1.70;;
79403;SDS011;68858;48.642;9.142;2023-08-06T04:51:32;2.73;;;1.60;;
79403;SDS011;68858;48.642;9.142;2023-08-06T04:53:57;3.77;;;1.70;;
79403;SDS011;68858;48.642;9.142;2023-08-06T04:56:23;2.60;;;1.53;;
79403;SDS011;68858;48.642;9.142;2023-08-06T04:58:48;2.70;;;1.57;;
79403;SDS011;68858;48.642;9.142;2023-08-06T05:01:14;1.93;;;1.33;;
79403;SDS011;68858;48.642;9.142;2023-08-06T05:03:39;5.73;;;1.70;;
79403;SDS011;68858;48.642;9.142;2023-08-06T05:06:04;1.67;;;1.27;;
79403;SDS011;68858;48.642;9.142;2023-08-06T05:08:30;3.00;;;1.40;;
79403;SDS011;68858;48.642;9.142;2023-08-06T05:10:55;3.23;;;1.40;;
79403;SDS011;68858;48.642;9.142;2023-08-06T05:13:20;2.63;;;1.20;;
79403;SDS011;68858;48.642;9.142;2023-08-06T05:15:46;1.00;;;0.90;;
79403;SDS011;68858;48.642;9.142;2023-08-06T05:18:11;1.63;;;1.23;;
79403;SDS011;68858;48.642;9.142;2023-08-06T05:20:37;3.30;;;1.20;;
79403;SDS011;68858;48.642;9.142;2023-08-06T05:23:05;1.53;;;1.10;;
79403;SDS011;68858;48.642;9.142;2023-08-06T05:25:30;1.77;;;1.10;;
79403;SDS011;68858;48.642;9.142;2023-08-06T05:27:55;1.77;;;1.23;;
79403;SDS011;68858;48.642;9.142;2023-08-06T05:30:21;1.17;;;0.90;;
79403;SDS011;68858;48.642;9.142;2023-08-06T05:32:46;2.40;;;1.30;;
79403;SDS011;68858;48.642;9.142;2023-08-06T05:35:11;1.83;;;1.03;;
79403;SDS011;68858;48.642;9.142;2023-08-06T05:37:37;3.00;;;1.03;;
79403;SDS011;68858;48.642;9.142;2023-08-06T05:40:02;2.63;;;1.30;;
79403;SDS011;68858;48.642;9.142;2023-08-06T05:42:29;1.27;;;1.10;;
79403;SDS011;68858;48.642;9.142;2023-08-06T05:44:54;2.63;;;1.03;;
79403;SDS011;68858;48.642;9.142;2023-08-06T05:47:19;2.03;;;1.07;;
79403;SDS011;68858;48.642;9.142;2023-08-06T05:49:45;2.00;;;1.10;;
79403;SDS011;68858;48.642;9.142;2023-08-06T05:52:10;1.47;;;1.10;;
79403;SDS011;68858;48.642;9.142;2023-08-06T05:54:36;1.70;;;1.20;;
79403;SDS011;68858;48.642;9.142;2023-08-06T05:57:01;3.10;;;0.90;;
79403;SDS011;68858;48.642;9.142;2023-08-06T05:59:26;1.17;;;0.97;;
79403;SDS011;68858;48.642;9.142;2023-08-06T06:01:52;3.27;;;1.43;;
79403;SDS011;68858;48.642;9.142;2023-08-06T06:04:17;1.30;;;1.07;;
79403;SDS011;68858;48.642;9.142;2023-08-06T06:06:42;1.37;;;1.00;;
79403;SDS011;68858;48.642;9.142;2023-08-06T06:09:08;2.77;;;1.40;;
79403;SDS011;68858;48.642;9.142;2023-08-06T06:11:33;1.30;;;1.00;;
79403;SDS011;68858;48.642;9.142;2023-08-06T06:13:59;2.07;;;1.27;;
79403;SDS011;68858;48.642;9.142;2023-08-06T06:16:24;3.97;;;1.43;;
79403;SDS011;68858;48.642;9.142;2023-08-06T06:18:49;3.10;;;1.23;;
79403;SDS011;68858;48.642;9.142;2023-08-06T06:21:15;1.47;;;1.23;;
79403;SDS011;68858;48.642;9.142;2023-08-06T06:23:40;1.20;;;1.10;;
79403;SDS011;68858;48.642;9.142;2023-08-06T06:26:05;2.40;;;1.03;;
79403;SDS011;68858;48.642;9.142;2023-08-06T06:28:31;1.73;;;1.00;;
79403;SDS011;68858;48.642;9.142;2023-08-06T06:31:02;1.63;;;1.00;;
79403;SDS011;68858;48.642;9.142;2023-08-06T06:33:28;2.43;;;1.30;;
79403;SDS011;68858;48.642;9.142;2023-08-06T06:35:53;2.60;;;1.00;;
79403;SDS011;68858;48.642;9.142;2023-08-06T06:38:19;1.90;;;0.90;;
79403;SDS011;68858;48.642;9.142;2023-08-06T06:40:52;1.50;;;1.17;;
79403;SDS011;68858;48.642;9.142;2023-08-06T06:43:18;2.53;;;1.00;;
79403;SDS011;68858;48.642;9.142;2023-08-06T06:45:43;1.37;;;0.90;;
79403;SDS011;68858;48.642;9.142;2023-08-06T06:48:09;1.37;;;1.00;;
79403;SDS011;68858;48.642;9.142;2023-08-06T06:50:35;4.67;;;1.20;;
79403;SDS011;68858;48.642;9.142;2023-08-06T06:53:00;2.37;;;0.90;;
79403;SDS011;68858;48.642;9.142;2023-08-06T06:55:26;0.83;;;0.83;;
79403;SDS011;68858;48.642;9.142;2023-08-06T06:57:51;1.10;;;0.80;;
79403;SDS011;68858;48.642;9.142;2023-08-06T07:00:16;0.60;;;0.60;;
79403;SDS011;68858;48.642;9.142;2023-08-06T07:02:42;1.53;;;0.90;;
79403;SDS011;68858;48.642;9.142;2023-08-06T07:05:07;1.27;;;0.90;;
79403;SDS011;68858;48.642;9.142;2023-08-06T07:07:34;2.13;;;0.73;;
79403;SDS011;68858;48.642;9.142;2023-08-06T07:10:00;0.90;;;0.83;;
79403;SDS011;68858;48.642;9.142;2023-08-06T07:12:26;1.27;;;0.90;;
79403;SDS011;68858;48.642;9.142;2023-08-06T07:14:51;1.47;;;0.97;;
79403;SDS011;68858;48.642;9.142;2023-08-06T07:17:17;0.90;;;0.80;;
79403;SDS011;68858;48.642;9.142;2023-08-06T07:19:42;0.97;;;0.80;;
79403;SDS011;68858;48.642;9.142;2023-08-06T07:22:07;1.33;;;0.60;;
79403;SDS011;68858;48.642;9.142;2023-08-06T07:24:33;0.50;;;0.50;;
79403;SDS011;68858;48.642;9.142;2023-08-06T07:26:58;1.10;;;0.60;;
79403;SDS011;68858;48.642;9.142;2023-08-06T07:29:23;0.70;;;0.70;;
79403;SDS011;68858;48.642;9.142;2023-08-06T07:31:48;0.50;;;0.50;;
79403;SDS011;68858;48.642;9.142;2023-08-06T07:34:15;0.63;;;0.50;;
79403;SDS011;68858;48.642;9.142;2023-08-06T07:36:42;0.57;;;0.50;;
79403;SDS011;68858;48.642;9.142;2023-08-06T07:39:08;1.50;;;1.20;;
79403;SDS011;68858;48.642;9.142;2023-08-06T07:41:35;0.60;;;0.60;;
79403;SDS011;68858;48.642;9.142;2023-08-06T07:44:00;1.33;;;0.47;;
79403;SDS011;68858;48.642;9.142;2023-08-06T07:46:25;1.03;;;0.57;;
79403;SDS011;68858;48.642;9.142;2023-08-06T07:48:51;0.60;;;0.60;;
79403;SDS011;68858;48.642;9.142;2023-08-06T07:51:16;0.73;;;0.73;;
79403;SDS011;68858;48.642;9.142;2023-08-06T07:53:41;1.67;;;0.67;;
79403;SDS011;68858;48.642;9.142;2023-08-06T07:56:06;1.20;;;0.70;;
79403;SDS011;68858;48.642;9.142;2023-08-06T07:58:32;1.93;;;0.50;;
79403;SDS011;68858;48.642;9.142;2023-08-06T08:00:57;0.40;;;0.40;;
79403;SDS011;68858;48.642;9.142;2023-08-06T08:03:23;0.60;;;0.60;;
79403;SDS011;68858;48.642;9.142;2023-08-06T08:05:48;1.00;;;0.63;;
79403;SDS011;68858;48.642;9.142;2023-08-06T08:08:13;1.67;;;0.70;;
79403;SDS011;68858;48.642;9.142;2023-08-06T08:10:39;0.97;;;0.40;;
79403;SDS011;68858;48.642;9.142;2023-08-06T08:13:04;0.87;;;0.40;;
79403;SDS011;68858;48.642;9.142;2023-08-06T08:15:31;0.73;;;0.40;;
79403;SDS011;68858;48.642;9.142;2023-08-06T08:17:57;0.67;;;0.30;;
79403;SDS011;68858;48.642;9.142;2023-08-06T08:20:23;1.13;;;0.50;;
79403;SDS011;68858;48.642;9.142;2023-08-06T08:22:48;0.40;;;0.20;;
79403;SDS011;68858;48.642;9.142;2023-08-06T08:25:14;0.30;;;0.30;;
79403;SDS011;68858;48.642;9.142;2023-08-06T08:27:40;0.83;;;0.40;;
79403;SDS011;68858;48.642;9.142;2023-08-06T08:30:06;0.43;;;0.40;;
79403;SDS011;68858;48.642;9.142;2023-08-06T08:32:31;0.40;;;0.40;;
79403;SDS011;68858;48.642;9.142;2023-08-06T08:34:57;1.03;;;0.33;;
79403;SDS011;68858;48.642;9.142;2023-08-06T08:37:22;0.30;;;0.30;;
79403;SDS011;68858;48.642;9.142;2023-08-06T08:39:48;0.50;;;0.20;;
79403;SDS011;68858;48.642;9.142;2023-08-06T08:42:13;0.27;;;0.27;;
79403;SDS011;68858;48.642;9.142;2023-08-06T08:44:39;0.30;;;0.30;;
79403;SDS011;68858;48.642;9.142;2023-08-06T08:47:08;0.50;;;0.30;;
79403;SDS011;68858;48.642;9.142;2023-08-06T08:49:35;0.33;;;0.20;;
79403;SDS011;68858;48.642;9.142;2023-08-06T08:52:01;1.03;;;0.20;;
79403;SDS011;68858;48.642;9.142;2023-08-06T08:54:27;0.77;;;0.37;;
79403;SDS011;68858;48.642;9.142;2023-08-06T08:56:53;1.23;;;0.30;;
79403;SDS011;68858;48.642;9.142;2023-08-06T08:59:20;0.40;;;0.40;;
79403;SDS011;68858;48.642;9.142;2023-08-06T09:01:45;0.77;;;0.40;;
79403;SDS011;68858;48.642;9.142;2023-08-06T09:04:11;0.30;;;0.30;;
79403;SDS011;68858;48.642;9.142;2023-08-06T09:06:37;0.50;;;0.30;;
79403;SDS011;68858;48.642;9.142;2023-08-06T09:09:08;0.40;;;0.30;;
79403;SDS011;68858;48.642;9.142;2023-08-06T09:11:37;0.67;;;0.20;;
79403;SDS011;68858;48.642;9.142;2023-08-06T09:14:10;0.30;;;0.20;;
79403;SDS011;68858;48.642;9.142;2023-08-06T09:16:37;0.70;;;0.40;;
79403;SDS011;68858;48.642;9.142;2023-08-06T09:19:06;0.70;;;0.20;;
79403;SDS011;68858;48.642;9.142;2023-08-06T09:21:38;0.23;;;0.20;;
79403;SDS011;68858;48.642;9.142;2023-08-06T09:24:08;0.80;;;0.63;;
79403;SDS011;68858;48.642;9.142;2023-08-06T09:26:34;0.20;;;0.10;;
79403;SDS011;68858;48.642;9.142;2023-08-06T09:29:00;0.67;;;0.20;;
79403;SDS011;68858;48.642;9.142;2023-08-06T09:31:25;0.53;;;0.40;;
79403;SDS011;68858;48.642;9.142;2023-08-06T09:33:59;0.70;;;0.40;;
79403;SDS011;68858;48.642;9.142;2023-08-06T09:36:24;0.30;;;0.30;;
79403;SDS011;68858;48.642;9.142;2023-08-06T09:38:50;0.43;;;0.20;;
79403;SDS011;68858;48.642;9.142;2023-08-06T09:41:26;0.30;;;0.20;;
79403;SDS011;68858;48.642;9.142;2023-08-06T09:43:52;0.33;;;0.30;;
79403;SDS011;68858;48.642;9.142;2023-08-06T09:46:18;1.53;;;0.27;;
79403;SDS011;68858;48.642;9.142;2023-08-06T09:48:46;0.37;;;0.33;;
79403;SDS011;68858;48.642;9.142;2023-08-06T09:51:13;0.40;;;0.20;;
79403;SDS011;68858;48.642;9.142;2023-08-06T09:53:40;0.40;;;0.20;;
79403;SDS011;68858;48.642;9.142;2023-08-06T09:56:05;0.80;;;0.20;;
79403;SDS011;68858;48.642;9.142;2023-08-06T09:58:31;0.10;;;0.10;;
79403;SDS011;68858;48.642;9.142;2023-08-06T10:00:57;0.40;;;0.20;;
79403;SDS011;68858;48.642;9.142;2023-08-06T10:03:23;0.67;;;0.40;;
79403;SDS011;68858;48.642;9.142;2023-08-06T10:05:48;0.60;;;0.60;;
79403;SDS011;68858;48.642;9.142;2023-08-06T10:08:14;0.33;;;0.33;;
79403;SDS011;68858;48.642;9.142;2023-08-06T10:10:39;0.50;;;0.30;;
79403;SDS011;68858;48.642;9.142;2023-08-06T10:13:05;0.40;;;0.30;;
79403;SDS011;68858;48.642;9.142;2023-08-06T10:15:31;0.63;;;0.40;;
79403;SDS011;68858;48.642;9.142;2023-08-06T10:17:58;0.63;;;0.20;;
79403;SDS011;68858;48.642;9.142;2023-08-06T10:20:24;0.30;;;0.30;;
79403;SDS011;68858;48.642;9.142;2023-08-06T10:23:00;1.00;;;0.40;;
79403;SDS011;68858;48.642;9.142;2023-08-06T10:25:26;0.77;;;0.63;;
79403;SDS011;68858;48.642;9.142;2023-08-06T10:27:55;1.50;;;0.40;;
79403;SDS011;68858;48.642;9.142;2023-08-06T10:38:03;0.40;;;0.30;;
79403;SDS011;68858;48.642;9.142;2023-08-06T10:40:47;0.50;;;0.40;;
79403;SDS011;68858;48.642;9.142;2023-08-06T10:43:37;1.23;;;0.33;;
79403;SDS011;68858;48.642;9.142;2023-08-06T10:46:08;0.30;;;0.30;;
79403;SDS011;68858;48.642;9.142;2023-08-06T10:48:35;0.40;;;0.30;;
79403;SDS011;68858;48.642;9.142;2023-08-06T10:51:02;0.53;;;0.40;;
79403;SDS011;68858;48.642;9.142;2023-08-06T10:53:28;0.23;;;0.20;;
79403;SDS011;68858;48.642;9.142;2023-08-06T10:55:53;1.07;;;0.40;;
79403;SDS011;68858;48.642;9.142;2023-08-06T10:58:18;2.30;;;0.60;;
79403;SDS011;68858;48.642;9.142;2023-08-06T11:00:44;1.23;;;0.60;;
79403;SDS011;68858;48.642;9.142;2023-08-06T11:03:09;0.70;;;0.43;;
79403;SDS011;68858;48.642;9.142;2023-08-06T11:05:38;1.03;;;0.40;;
79403;SDS011;68858;48.642;9.142;2023-08-06T11:08:04;0.20;;;0.20;;
79403;SDS011;68858;48.642;9.142;2023-08-06T11:10:32;0.30;;;0.30;;
79403;SDS011;68858;48.642;9.142;2023-08-06T11:13:01;0.83;;;0.20;;
79403;SDS011;68858;48.642;9.142;2023-08-06T11:15:27;0.40;;;0.20;;
79403;SDS011;68858;48.642;9.142;2023-08-06T11:17:53;0.50;;;0.40;;
79403;SDS011;68858;48.642;9.142;2023-08-06T11:20:19;0.30;;;0.30;;
79403;SDS011;68858;48.642;9.142;2023-08-06T11:22:46;0.67;;;0.43;;
79403;SDS011;68858;48.642;9.142;2023-08-06T11:25:11;0.27;;;0.27;;
79403;SDS011;68858;48.642;9.142;2023-08-06T11:27:36;0.57;;;0.40;;
79403;SDS011;68858;48.642;9.142;2023-08-06T11:30:02;0.20;;;0.20;;
79403;SDS011;68858;48.642;9.142;2023-08-06T11:32:27;0.50;;;0.37;;
79403;SDS011;68858;48.642;9.142;2023-08-06T11:34:53;0.20;;;0.20;;
79403;SDS011;68858;48.642;9.142;2023-08-06T11:37:22;1.30;;;0.80;;
79403;SDS011;68858;48.642;9.142;2023-08-06T11:39:49;0.73;;;0.40;;
79403;SDS011;68858;48.642;9.142;2023-08-06T11:42:14;0.47;;;0.40;;
79403;SDS011;68858;48.642;9.142;2023-08-06T11:44:40;0.30;;;0.30;;
79403;SDS011;68858;48.642;9.142;2023-08-06T11:47:11;0.33;;;0.33;;
79403;SDS011;68858;48.642;9.142;2023-08-06T11:49:38;0.50;;;0.30;;
79403;SDS011;68858;48.642;9.142;2023-08-06T11:52:11;0.30;;;0.30;;
79403;SDS011;68858;48.642;9.142;2023-08-06T11:54:39;0.73;;;0.40;;
79403;SDS011;68858;48.642;9.142;2023-08-06T11:57:05;0.47;;;0.47;;
79403;SDS011;68858;48.642;9.142;2023-08-06T11:59:30;0.43;;;0.43;;
79403;SDS011;68858;48.642;9.142;2023-08-06T12:02:02;0.40;;;0.40;;
79403;SDS011;68858;48.642;9.142;2023-08-06T12:07:30;0.70;;;0.67;;
79403;SDS011;68858;48.642;9.142;2023-08-06T12:09:57;0.50;;;0.50;;
79403;SDS011;68858;48.642;9.142;2023-08-06T12:12:23;0.40;;;0.40;;
79403;SDS011;68858;48.642;9.142;2023-08-06T12:14:48;1.50;;;0.57;;
79403;SDS011;68858;48.642;9.142;2023-08-06T12:17:14;0.60;;;0.60;;
79403;SDS011;68858;48.642;9.142;2023-08-06T12:19:39;1.03;;;0.63;;
79403;SDS011;68858;48.642;9.142;2023-08-06T12:22:04;0.40;;;0.40;;
79403;SDS011;68858;48.642;9.142;2023-08-06T12:24:29;0.50;;;0.50;;
79403;SDS011;68858;48.642;9.142;2023-08-06T12:26:57;0.63;;;0.63;;
79403;SDS011;68858;48.642;9.142;2023-08-06T12:29:22;0.70;;;0.70;;
79403;SDS011;68858;48.642;9.142;2023-08-06T12:31:48;0.90;;;0.90;;
79403;SDS011;68858;48.642;9.142;2023-08-06T12:34:13;1.10;;;1.00;;
79403;SDS011;68858;48.642;9.142;2023-08-06T12:36:39;1.23;;;0.80;;
79403;SDS011;68858;48.642;9.142;2023-08-06T12:39:04;4.97;;;1.10;;
79403;SDS011;68858;48.642;9.142;2023-08-06T12:41:29;0.80;;;0.80;;
79403;SDS011;68858;48.642;9.142;2023-08-06T12:43:55;0.87;;;0.87;;
79403;SDS011;68858;48.642;9.142;2023-08-06T12:46:20;0.90;;;0.90;;
79403;SDS011;68858;48.642;9.142;2023-08-06T12:48:45;1.70;;;0.97;;
79403;SDS011;68858;48.642;9.142;2023-08-06T12:51:11;0.87;;;0.80;;
79403;SDS011;68858;48.642;9.142;2023-08-06T12:53:36;0.83;;;0.83;;
79403;SDS011;68858;48.642;9.142;2023-08-06T12:56:01;1.37;;;1.00;;
79403;SDS011;68858;48.642;9.142;2023-08-06T12:58:27;1.00;;;0.90;;
79403;SDS011;68858;48.642;9.142;2023-08-06T13:00:52;0.80;;;0.80;;
79403;SDS011;68858;48.642;9.142;2023-08-06T13:03:17;1.67;;;0.80;;
79403;SDS011;68858;48.642;9.142;2023-08-06T13:05:43;1.20;;;0.90;;
79403;SDS011;68858;48.642;9.142;2023-08-06T13:08:09;0.90;;;0.80;;
79403;SDS011;68858;48.642;9.142;2023-08-06T13:10:34;1.50;;;0.90;;
79403;SDS011;68858;48.642;9.142;2023-08-06T13:13:00;1.10;;;1.00;;
79403;SDS011;68858;48.642;9.142;2023-08-06T13:15:25;1.00;;;0.90;;
79403;SDS011;68858;48.642;9.142;2023-08-06T13:17:51;0.90;;;0.60;;
79403;SDS011;68858;48.642;9.142;2023-08-06T13:20:16;1.60;;;0.80;;
79403;SDS011;68858;48.642;9.142;2023-08-06T13:22:44;0.80;;;0.80;;
79403;SDS011;68858;48.642;9.142;2023-08-06T13:25:11;1.43;;;0.80;;
79403;SDS011;68858;48.642;9.142;2023-08-06T13:27:36;0.70;;;0.70;;
79403;SDS011;68858;48.642;9.142;2023-08-06T13:30:02;0.97;;;0.70;;
79403;SDS011;68858;48.642;9.142;2023-08-06T13:32:28;0.80;;;0.80;;
79403;SDS011;68858;48.642;9.142;2023-08-06T13:34:53;1.10;;;0.80;;
79403;SDS011;68858;48.642;9.142;2023-08-06T13:37:18;1.13;;;0.60;;
79403;SDS011;68858;48.642;9.142;2023-08-06T13:39:43;0.67;;;0.67;;
79403;SDS011;68858;48.642;9.142;2023-08-06T13:42:09;0.80;;;0.80;;
79403;SDS011;68858;48.642;9.142;2023-08-06T13:44:34;1.00;;;0.60;;
79403;SDS011;68858;48.642;9.142;2023-08-06T13:47:00;0.60;;;0.60;;
79403;SDS011;68858;48.642;9.142;2023-08-06T13:49:26;1.13;;;0.70;;
79403;SDS011;68858;48.642;9.142;2023-08-06T13:51:51;1.13;;;0.70;;
79403;SDS011;68858;48.642;9.142;2023-08-06T13:54:17;1.00;;;0.90;;
79403;SDS011;68858;48.642;9.142;2023-08-06T13:56:42;0.50;;;0.50;;
79403;SDS011;68858;48.642;9.142;2023-08-06T13:59:07;0.60;;;0.50;;
79403;SDS011;68858;48.642;9.142;2023-08-06T14:01:33;0.60;;;0.60;;
79403;SDS011;68858;48.642;9.142;2023-08-06T14:03:58;0.97;;;0.90;;
79403;SDS011;68858;48.642;9.142;2023-08-06T14:06:24;0.83;;;0.83;;
79403;SDS011;68858;48.642;9.142;2023-08-06T14:08:49;0.50;;;0.50;;
79403;SDS011;68858;48.642;9.142;2023-08-06T14:11:14;1.00;;;0.70;;
79403;SDS011;68858;48.642;9.142;2023-08-06T14:13:40;1.23;;;0.77;;
79403;SDS011;68858;48.642;9.142;2023-08-06T14:16:05;0.50;;;0.50;;
79403;SDS011;68858;48.642;9.142;2023-08-06T14:18:30;0.70;;;0.70;;
79403;SDS011;68858;48.642;9.142;2023-08-06T14:20:55;0.83;;;0.60;;
79403;SDS011;68858;48.642;9.142;2023-08-06T14:23:21;0.67;;;0.67;;
79403;SDS011;68858;48.642;9.142;2023-08-06T14:25:46;0.70;;;0.70;;
79403;SDS011;68858;48.642;9.142;2023-08-06T14:28:11;0.70;;;0.67;;
79403;SDS011;68858;48.642;9.142;2023-08-06T14:30:37;1.03;;;0.80;;
79403;SDS011;68858;48.642;9.142;2023-08-06T14:33:02;1.03;;;0.70;;
79403;SDS011;68858;48.642;9.142;2023-08-06T14:35:28;0.80;;;0.80;;
79403;SDS011;68858;48.642;9.142;2023-08-06T14:37:53;0.73;;;0.73;;
79403;SDS011;68858;48.642;9.142;2023-08-06T14:40:19;0.80;;;0.80;;
79403;SDS011;68858;48.642;9.142;2023-08-06T14:42:44;0.70;;;0.70;;
79403;SDS011;68858;48.642;9.142;2023-08-06T14:45:09;1.27;;;0.80;;
79403;SDS011;68858;48.642;9.142;2023-08-06T14:47:35;0.80;;;0.70;;
79403;SDS011;68858;48.642;9.142;2023-08-06T14:50:00;0.60;;;0.60;;
79403;SDS011;68858;48.642;9.142;2023-08-06T14:52:25;0.70;;;0.70;;
79403;SDS011;68858;48.642;9.142;2023-08-06T14:54:51;1.83;;;0.83;;
79403;SDS011;68858;48.642;9.142;2023-08-06T14:57:20;0.70;;;0.70;;
79403;SDS011;68858;48.642;9.142;2023-08-06T14:59:46;1.07;;;0.80;;